Time;durP1;ratioP1;P1;durP2;ratioP2;P2;SDS_P1;SDS_P2;PMS_P1;PMS_P2;Temp;Humidity;BMP_temperature;BMP_pressure;BME280_temperature;BME280_humidity;BME280_pressure;Samples;Min_cycle;Max_cycle;Signal;HPM_P1;HPM_P2
2024/02/15 00:01:09;;;;;;;0.80;0.80;;;12.90;99.90;;;;;;10435069;28;20201;-77
2024/02/15 00:06:12;;;;;;;0.80;0.80;;;12.90;99.90;;;;;;10450157;28;20201;-77
2024/02/15 00:11:15;;;;;;;0.67;0.67;;;12.90;99.90;;;;;;10417560;28;20218;-75
2024/02/15 00:16:18;;;;;;;0.80;0.80;;;12.90;99.90;;;;;;10439909;28;20228;-77
2024/02/15 00:21:20;;;;;;;0.50;0.50;;;12.90;99.90;;;;;;10417651;28;20205;-77
2024/02/15 00:26:24;;;;;;;0.70;0.70;;;12.90;99.90;;;;;;10435170;28;20689;-74
2024/02/15 00:31:26;;;;;;;0.50;0.50;;;12.90;99.90;;;;;;10438922;28;20225;-74
2024/02/15 00:36:29;;;;;;;0.60;0.60;;;12.90;99.90;;;;;;10449660;28;20224;-77
2024/02/15 00:41:34;;;;;;;0.70;0.70;;;12.90;99.90;;;;;;10424029;28;20198;-77
2024/02/15 00:46:37;;;;;;;0.60;0.60;;;12.90;99.90;;;;;;10429422;28;20233;-77
2024/02/15 00:51:39;;;;;;;0.60;0.60;;;12.90;99.90;;;;;;10427139;28;20272;-75
2024/02/15 00:56:43;;;;;;;0.50;0.50;;;12.90;99.90;;;;;;10446246;28;20213;-73
2024/02/15 01:01:46;;;;;;;0.60;0.60;;;12.90;99.90;;;;;;10449937;28;20189;-76
2024/02/15 01:06:48;;;;;;;0.50;0.50;;;12.90;99.90;;;;;;10455579;28;20732;-75
2024/02/15 01:11:52;;;;;;;0.50;0.50;;;12.90;99.90;;;;;;10426153;28;20226;-74
2024/02/15 01:16:54;;;;;;;0.50;0.50;;;12.90;99.90;;;;;;10444201;28;20243;-76
2024/02/15 01:21:59;;;;;;;0.50;0.50;;;12.90;99.90;;;;;;10427697;28;20666;-76
2024/02/15 01:27:03;;;;;;;0.50;0.50;;;12.80;99.90;;;;;;10443691;28;20706;-76
2024/02/15 01:32:06;;;;;;;0.50;0.50;;;12.90;99.90;;;;;;10452696;28;20225;-77
2024/02/15 01:37:09;;;;;;;0.50;0.50;;;12.90;99.90;;;;;;10455520;28;20279;-76
2024/02/15 01:42:14;;;;;;;0.50;0.50;;;12.80;99.90;;;;;;10427578;28;20206;-76
2024/02/15 01:47:19;;;;;;;0.60;0.60;;;12.80;99.90;;;;;;10442530;28;20224;-76
2024/02/15 01:52:21;;;;;;;0.50;0.50;;;12.70;99.90;;;;;;10426473;28;20214;-76
2024/02/15 01:57:25;;;;;;;0.60;0.60;;;12.60;99.90;;;;;;10441071;28;20209;-76
2024/02/15 02:02:31;;;;;;;0.50;0.50;;;12.50;99.90;;;;;;10449695;28;20216;-77
2024/02/15 02:07:34;;;;;;;0.60;0.60;;;12.40;99.90;;;;;;10425857;28;20593;-76
2024/02/15 02:12:39;;;;;;;0.50;0.50;;;12.30;99.90;;;;;;10440457;28;20201;-76
2024/02/15 02:17:41;;;;;;;0.60;0.60;;;12.10;99.90;;;;;;10425221;28;20253;-75
2024/02/15 02:22:46;;;;;;;0.50;0.50;;;12.00;99.90;;;;;;10434832;28;20229;-73
2024/02/15 02:27:50;;;;;;;0.60;0.60;;;11.90;99.90;;;;;;10426958;28;20218;-76
2024/02/15 02:32:52;;;;;;;0.53;0.53;;;11.70;99.90;;;;;;10442915;28;20601;-76
2024/02/15 02:37:54;;;;;;;0.50;0.50;;;11.60;99.90;;;;;;10426979;28;20225;-77
2024/02/15 02:42:59;;;;;;;0.60;0.60;;;11.40;99.90;;;;;;10437982;28;20197;-75
2024/02/15 02:48:01;;;;;;;0.60;0.60;;;11.30;99.90;;;;;;10426628;28;20241;-76
2024/02/15 02:53:05;;;;;;;0.60;0.60;;;11.10;99.90;;;;;;10437063;28;20255;-75
2024/02/15 02:58:09;;;;;;;0.60;0.60;;;11.10;99.90;;;;;;10427428;28;20220;-76
2024/02/15 03:03:11;;;;;;;0.50;0.50;;;11.00;99.90;;;;;;10444958;28;20198;-79
2024/02/15 03:08:13;;;;;;;0.60;0.60;;;10.90;99.90;;;;;;10427092;28;20272;-75
2024/02/15 03:13:19;;;;;;;0.70;0.70;;;10.90;99.90;;;;;;10434132;28;20217;-76
2024/02/15 03:18:23;;;;;;;0.60;0.60;;;10.90;99.90;;;;;;10426713;28;20396;-75
2024/02/15 03:23:25;;;;;;;0.60;0.60;;;10.80;99.90;;;;;;10433709;28;20201;-76
2024/02/15 03:28:29;;;;;;;0.70;0.70;;;10.80;99.90;;;;;;10427098;28;20225;-75
2024/02/15 03:33:34;;;;;;;0.70;0.70;;;10.80;99.90;;;;;;10447443;28;20220;-76
2024/02/15 03:38:36;;;;;;;0.60;0.60;;;10.80;99.90;;;;;;10432228;28;20216;-77
2024/02/15 03:43:40;;;;;;;0.70;0.70;;;10.80;99.90;;;;;;10427232;28;20248;-76
2024/02/15 03:48:44;;;;;;;0.80;0.80;;;10.70;99.90;;;;;;10432623;28;20603;-75
2024/02/15 03:53:48;;;;;;;0.60;0.60;;;10.70;99.90;;;;;;10427639;28;20217;-76
2024/02/15 03:58:52;;;;;;;0.70;0.70;;;10.70;99.90;;;;;;10431833;28;20228;-76
2024/02/15 04:03:55;;;;;;;1.00;1.00;;;10.60;99.90;;;;;;10449098;28;20596;-74
2024/02/15 04:08:57;;;;;;;1.10;1.10;;;10.50;99.90;;;;;;10422125;28;20225;-77
2024/02/15 04:14:01;;;;;;;1.17;1.17;;;10.60;99.90;;;;;;10431208;28;20208;-76
2024/02/15 04:19:04;;;;;;;1.30;1.30;;;10.60;99.90;;;;;;10427133;28;20222;-76
2024/02/15 04:24:06;;;;;;;1.00;1.00;;;10.60;99.90;;;;;;10430458;28;20193;-76
2024/02/15 04:29:10;;;;;;;1.10;1.10;;;10.70;99.90;;;;;;10428077;28;20222;-76
2024/02/15 04:34:13;;;;;;;1.00;1.00;;;10.90;99.90;;;;;;10449785;28;20201;-76
2024/02/15 04:39:23;;;;;;;1.07;1.07;;;11.00;99.90;;;;;;10428721;28;20726;-76
2024/02/15 04:44:27;;;;;;;0.90;0.90;;;11.20;99.90;;;;;;10430093;28;20759;-77
2024/02/15 04:49:29;;;;;;;1.10;1.10;;;11.30;99.90;;;;;;10426189;28;20651;-78
2024/02/15 04:54:32;;;;;;;1.30;1.30;;;11.40;99.90;;;;;;10429421;28;20205;-76
2024/02/15 04:59:36;;;;;;;0.60;0.60;;;11.50;99.90;;;;;;10432822;28;20221;-76
2024/02/15 05:04:38;;;;;;;0.80;0.80;;;11.50;99.90;;;;;;10449169;28;20200;-76
2024/02/15 05:09:40;;;;;;;1.10;1.10;;;11.50;99.90;;;;;;10428572;28;20227;-77
2024/02/15 05:14:44;;;;;;;1.20;1.20;;;11.60;99.90;;;;;;10419231;28;20271;-76
2024/02/15 05:19:47;;;;;;;0.80;0.80;;;11.70;99.90;;;;;;10431999;28;20209;-76
2024/02/15 05:24:50;;;;;;;0.60;0.60;;;11.80;99.90;;;;;;10429282;28;20198;-76
2024/02/15 05:29:54;;;;;;;1.00;1.00;;;11.80;99.90;;;;;;10423092;28;20272;-77
2024/02/15 05:34:56;;;;;;;0.80;0.80;;;11.90;99.90;;;;;;10413930;28;20672;-77
2024/02/15 05:39:58;;;;;;;1.10;1.10;;;11.90;99.90;;;;;;10421511;28;20225;-77
2024/02/15 05:45:32;;;;;;;0.90;0.90;;;12.00;99.90;;;;;;10420489;28;20255;-77
2024/02/15 05:50:34;;;;;;;0.80;0.80;;;12.00;99.90;;;;;;10419604;28;20275;-76
2024/02/15 05:55:40;;;;;;;0.87;0.87;;;12.00;99.90;;;;;;10418765;28;20575;-75
2024/02/15 06:00:45;;;;;;;0.80;0.80;;;12.00;99.90;;;;;;10423606;28;20237;-78
2024/02/15 06:05:47;;;;;;;0.70;0.70;;;12.00;99.90;;;;;;10416956;28;20197;-77
2024/02/15 06:10:50;;;;;;;0.90;0.90;;;12.00;99.90;;;;;;10414747;28;20299;-78
2024/02/15 06:15:54;;;;;;;0.60;0.60;;;12.00;99.90;;;;;;10408949;28;20222;-79
2024/02/15 06:20:58;;;;;;;0.70;0.70;;;12.00;99.90;;;;;;10414326;28;20260;-77
2024/02/15 06:26:02;;;;;;;0.50;0.50;;;12.10;99.90;;;;;;10412207;28;20244;-76
2024/02/15 06:41:46;;;;;;;0.60;0.60;;;12.00;99.90;;;;;;10416670;28;20239;-77
2024/02/15 06:46:49;;;;;;;0.73;0.73;;;11.90;99.90;;;;;;10418084;28;20232;-77
2024/02/15 06:51:52;;;;;;;0.60;0.60;;;11.90;99.90;;;;;;10418695;28;20225;-77
2024/02/15 06:56:55;;;;;;;0.73;0.73;;;11.90;99.90;;;;;;10415864;28;20217;-75
2024/02/15 07:01:59;;;;;;;0.80;0.80;;;11.80;99.90;;;;;;10416018;28;20198;-75
2024/02/15 07:07:02;;;;;;;0.70;0.70;;;11.80;99.90;;;;;;10414553;28;20229;-79
2024/02/15 07:12:05;;;;;;;0.80;0.80;;;11.70;99.90;;;;;;10413923;28;20642;-75
2024/02/15 07:17:10;;;;;;;0.80;0.80;;;11.70;99.90;;;;;;10412560;28;20217;-76
2024/02/15 07:22:13;;;;;;;0.73;0.73;;;11.70;99.90;;;;;;10412266;28;20198;-79
2024/02/15 07:27:15;;;;;;;0.43;0.43;;;11.70;99.90;;;;;;10410907;28;20222;-79
2024/02/15 07:32:19;;;;;;;0.80;0.80;;;11.70;99.90;;;;;;10411020;28;20245;-79
2024/02/15 07:37:25;;;;;;;0.73;0.73;;;11.70;99.90;;;;;;10409233;28;20218;-79
2024/02/15 07:42:28;;;;;;;0.70;0.70;;;11.80;99.90;;;;;;10416717;28;20225;-79
2024/02/15 07:47:31;;;;;;;0.70;0.70;;;11.80;99.90;;;;;;10414101;28;20229;-77
2024/02/15 07:52:34;;;;;;;0.73;0.73;;;11.80;99.90;;;;;;10415017;28;20646;-78
2024/02/15 07:57:36;;;;;;;0.60;0.60;;;11.80;99.90;;;;;;10414020;28;20221;-79
2024/02/15 08:02:41;;;;;;;0.70;0.70;;;11.90;99.90;;;;;;10420140;28;20197;-79
2024/02/15 08:07:45;;;;;;;0.63;0.63;;;12.10;99.90;;;;;;10412618;28;20218;-78
2024/02/15 08:12:52;;;;;;;0.60;0.60;;;12.20;99.90;;;;;;10411737;28;20217;-78
2024/02/15 08:17:58;;;;;;;0.50;0.50;;;12.40;99.90;;;;;;10408821;28;20206;-79
2024/02/15 08:23:00;;;;;;;0.60;0.60;;;12.50;99.90;;;;;;10403715;28;20193;-78
2024/02/15 08:28:05;;;;;;;0.80;0.80;;;12.50;99.90;;;;;;10409335;28;20726;-77
2024/02/15 08:33:10;;;;;;;0.60;0.60;;;12.60;99.90;;;;;;10415464;28;20221;-79
2024/02/15 08:38:16;;;;;;;0.60;0.60;;;12.70;99.90;;;;;;10407580;28;20271;-76
2024/02/15 08:43:18;;;;;;;0.50;0.50;;;12.80;99.90;;;;;;10410508;28;20260;-80
2024/02/15 08:48:23;;;;;;;0.50;0.50;;;13.00;99.90;;;;;;10414480;28;20276;-78
2024/02/15 08:53:26;;;;;;;0.50;0.50;;;13.10;99.90;;;;;;10413665;28;20244;-78
2024/02/15 08:58:29;;;;;;;0.50;0.50;;;13.20;99.90;;;;;;10410401;28;20644;-78
2024/02/15 09:03:33;;;;;;;0.60;0.60;;;13.30;99.90;;;;;;10425489;28;20679;-77
2024/02/15 09:08:36;;;;;;;0.40;0.40;;;13.40;99.90;;;;;;10419269;28;20954;-78
2024/02/15 09:13:38;;;;;;;0.40;0.40;;;13.50;99.90;;;;;;10418574;28;20910;-78
2024/02/15 09:18:45;;;;;;;0.50;0.50;;;13.50;99.90;;;;;;10417121;28;20218;-79
2024/02/15 09:23:48;;;;;;;0.50;0.50;;;13.60;99.90;;;;;;10416776;28;20240;-79
2024/02/15 09:28:51;;;;;;;0.40;0.40;;;13.60;99.90;;;;;;10398230;28;20217;-79
2024/02/15 09:33:55;;;;;;;0.43;0.43;;;13.60;99.90;;;;;;10419214;28;20226;-79
2024/02/15 09:38:58;;;;;;;0.50;0.50;;;13.50;99.90;;;;;;10414028;28;20257;-76
2024/02/15 09:44:03;;;;;;;0.40;0.40;;;13.50;99.90;;;;;;10416383;28;20217;-76
2024/02/15 09:49:07;;;;;;;0.40;0.40;;;13.60;99.90;;;;;;10420502;28;20230;-77
2024/02/15 09:54:10;;;;;;;0.50;0.50;;;13.60;99.90;;;;;;10413167;28;20210;-78
2024/02/15 09:59:13;;;;;;;0.40;0.40;;;13.60;99.90;;;;;;10421596;28;20837;-77
2024/02/15 10:04:17;;;;;;;0.40;0.40;;;13.50;99.90;;;;;;10421328;28;20202;-78
2024/02/15 10:09:29;;;;;;;0.50;0.50;;;13.50;99.90;;;;;;10408730;28;20297;-76
2024/02/15 10:14:33;;;;;;;0.50;0.50;;;13.40;99.90;;;;;;10407703;28;20226;-77
2024/02/15 10:19:37;;;;;;;0.40;0.40;;;13.40;99.90;;;;;;10415078;28;20217;-78
2024/02/15 10:24:39;;;;;;;0.50;0.50;;;13.30;99.90;;;;;;10413618;28;20801;-77
2024/02/15 10:29:41;;;;;;;0.60;0.60;;;13.30;99.90;;;;;;10410907;28;20575;-79
2024/02/15 10:34:48;;;;;;;0.30;0.30;;;13.30;99.90;;;;;;10404044;28;20264;-78
2024/02/15 10:40:05;;;;;;;0.40;0.40;;;13.40;99.90;;;;;;10406568;28;20532;-77
2024/02/15 10:45:10;;;;;;;0.40;0.40;;;13.50;99.90;;;;;;10418931;28;20197;-78
2024/02/15 10:50:14;;;;;;;0.50;0.50;;;13.70;99.90;;;;;;10418031;28;20222;-77
2024/02/15 10:55:22;;;;;;;0.43;0.43;;;13.80;99.60;;;;;;10416973;28;20507;-77
2024/02/15 11:00:31;;;;;;;0.40;0.40;;;13.90;99.90;;;;;;10417478;28;20213;-77
2024/02/15 11:05:37;;;;;;;0.40;0.40;;;14.00;99.90;;;;;;10414749;28;20202;-77
2024/02/15 11:10:43;;;;;;;0.50;0.50;;;14.00;99.60;;;;;;10413809;28;20229;-77
2024/02/15 11:15:49;;;;;;;0.60;0.60;;;14.10;99.90;;;;;;10410130;28;20226;-78
2024/02/15 11:20:55;;;;;;;0.60;0.60;;;14.10;99.50;;;;;;10488128;22;20286;-82
2024/02/15 11:26:00;;;;;;;0.50;0.50;;;14.20;99.40;;;;;;10458135;28;20201;-81
2024/02/15 11:31:03;;;;;;;0.40;0.40;;;14.20;99.70;;;;;;10491192;28;20220;-81
2024/02/15 11:36:08;;;;;;;0.50;0.50;;;14.20;99.60;;;;;;10480476;28;20219;-80
2024/02/15 11:41:12;;;;;;;0.60;0.60;;;14.10;99.90;;;;;;10476604;28;20220;-82
2024/02/15 11:46:14;;;;;;;0.50;0.50;;;14.00;99.90;;;;;;10454788;28;20255;-83
2024/02/15 11:51:36;;;;;;;0.40;0.40;;;14.00;99.90;;;;;;10461100;28;20334;-81
2024/02/15 11:57:04;;;;;;;0.57;0.57;;;14.10;99.90;;;;;;10463564;28;20227;-81
2024/02/15 12:23:38;;;;;;;0.50;0.50;;;14.50;99.90;;;;;;10460368;28;20197;-82
2024/02/15 12:28:43;;;;;;;0.50;0.50;;;14.40;99.90;;;;;;10482093;28;20204;-82
2024/02/15 12:33:46;;;;;;;0.57;0.57;;;14.40;99.90;;;;;;10481083;28;20290;-80
2024/02/15 12:39:01;;;;;;;0.70;0.70;;;14.50;99.90;;;;;;10485483;28;20220;-83
2024/02/15 12:44:03;;;;;;;0.40;0.40;;;14.60;99.90;;;;;;10487615;28;20186;-82
2024/02/15 12:49:30;;;;;;;0.50;0.50;;;14.70;99.70;;;;;;10465143;28;20767;-81
2024/02/15 12:54:34;;;;;;;0.40;0.40;;;14.90;99.60;;;;;;10488054;28;20678;-82
2024/02/15 12:59:37;;;;;;;0.40;0.40;;;15.10;99.10;;;;;;10490038;28;20894;-82
2024/02/15 13:04:39;;;;;;;0.40;0.40;;;15.40;99.20;;;;;;10488986;28;20201;-84
2024/02/15 13:09:43;;;;;;;0.40;0.40;;;15.70;98.70;;;;;;10491385;28;20239;-81
2024/02/15 13:14:45;;;;;;;0.40;0.40;;;15.90;98.20;;;;;;10465995;28;20335;-84
2024/02/15 13:19:49;;;;;;;0.40;0.40;;;16.00;97.80;;;;;;10464794;28;20355;-82
2024/02/15 13:24:55;;;;;;;0.40;0.40;;;16.10;98.00;;;;;;10466279;28;20190;-80
2024/02/15 13:29:58;;;;;;;0.50;0.50;;;16.10;98.20;;;;;;10474169;28;20224;-81
2024/02/15 13:35:07;;;;;;;0.40;0.40;;;16.10;97.70;;;;;;10483131;28;20233;-81
2024/02/15 13:40:15;;;;;;;0.30;0.30;;;16.20;97.50;;;;;;10467678;28;20228;-82
2024/02/15 13:45:18;;;;;;;0.40;0.40;;;16.30;97.10;;;;;;10481088;28;20197;-81
2024/02/15 13:50:21;;;;;;;0.40;0.40;;;16.30;97.40;;;;;;10461054;28;20709;-81
2024/02/15 13:55:25;;;;;;;0.50;0.50;;;16.20;97.30;;;;;;10487555;28;20216;-80
2024/02/15 14:00:31;;;;;;;0.40;0.40;;;16.30;97.30;;;;;;10488785;28;20232;-82
2024/02/15 14:05:33;;;;;;;0.50;0.50;;;16.30;97.10;;;;;;10459121;28;20189;-79
2024/02/15 14:10:37;;;;;;;0.47;0.47;;;16.20;96.70;;;;;;10488108;28;20588;-83
2024/02/15 14:15:40;;;;;;;0.30;0.30;;;16.20;97.30;;;;;;10502223;28;20721;-80
2024/02/15 14:20:43;;;;;;;0.30;0.30;;;16.00;98.00;;;;;;10500772;28;20216;-83
2024/02/15 14:25:46;;;;;;;0.30;0.30;;;16.00;96.80;;;;;;10499698;28;20215;-81
2024/02/15 14:36:09;;;;;;;0.50;0.50;;;16.20;96.60;;;;;;10503185;28;20216;-81
2024/02/15 14:41:13;;;;;;;0.60;0.60;;;16.20;96.90;;;;;;10503066;28;20246;-82
2024/02/15 14:46:15;;;;;;;0.60;0.60;;;16.20;97.00;;;;;;10503183;28;20184;-79
2024/02/15 14:51:19;;;;;;;0.50;0.50;;;16.10;97.60;;;;;;10504902;28;20216;-78
2024/02/15 14:56:22;;;;;;;0.40;0.40;;;15.90;97.90;;;;;;10504796;28;20303;-79
2024/02/15 15:01:25;;;;;;;0.50;0.50;;;15.80;98.30;;;;;;10502808;28;20203;-81
2024/02/15 15:17:10;;;;;;;0.40;0.40;;;15.40;99.90;;;;;;10496943;28;20216;-82
2024/02/15 15:22:12;;;;;;;0.57;0.57;;;15.30;99.50;;;;;;10497672;28;20212;-80
2024/02/15 15:27:15;;;;;;;0.70;0.70;;;15.20;99.90;;;;;;10499040;28;20220;-81
2024/02/15 15:32:18;;;;;;;0.50;0.50;;;15.10;99.90;;;;;;10498982;28;20593;-81
2024/02/15 15:37:22;;;;;;;0.50;0.50;;;15.00;99.90;;;;;;10497202;28;20208;-79
2024/02/15 15:42:27;;;;;;;0.60;0.60;;;14.90;99.90;;;;;;10499115;28;20204;-79
2024/02/15 15:47:29;;;;;;;0.60;0.60;;;14.80;99.90;;;;;;10498503;28;20212;-82
2024/02/15 15:52:31;;;;;;;0.50;0.50;;;14.70;99.90;;;;;;10498623;28;20189;-81
2024/02/15 15:57:35;;;;;;;0.30;0.30;;;14.60;99.90;;;;;;10497323;28;20216;-78
2024/02/15 16:02:37;;;;;;;0.60;0.60;;;14.60;99.90;;;;;;10497726;28;20200;-82
2024/02/15 16:07:42;;;;;;;0.60;0.60;;;14.50;99.90;;;;;;10498457;28;20217;-81
2024/02/15 16:12:47;;;;;;;0.60;0.60;;;14.50;99.90;;;;;;10494068;28;20212;-82
2024/02/15 16:17:49;;;;;;;0.70;0.70;;;14.50;99.90;;;;;;10485815;28;20228;-81
2024/02/15 16:22:51;;;;;;;0.60;0.60;;;14.50;99.90;;;;;;10494203;28;20678;-81
2024/02/15 16:27:59;;;;;;;0.73;0.73;;;14.60;99.90;;;;;;10493467;28;20220;-81
2024/02/15 16:33:01;;;;;;;0.60;0.60;;;14.60;99.90;;;;;;10496006;28;20262;-80
2024/02/15 16:38:05;;;;;;;0.70;0.70;;;14.60;99.90;;;;;;10494296;28;20220;-81
2024/02/15 16:43:08;;;;;;;0.57;0.57;;;14.60;99.90;;;;;;10494835;28;20204;-81
2024/02/15 16:48:11;;;;;;;0.60;0.60;;;14.50;99.90;;;;;;10496483;28;20220;-81
2024/02/15 16:53:14;;;;;;;0.53;0.53;;;14.50;99.90;;;;;;10497489;28;20761;-81
2024/02/15 16:58:20;;;;;;;0.50;0.50;;;14.40;99.90;;;;;;10496712;28;20223;-82
2024/02/15 17:03:22;;;;;;;0.70;0.70;;;14.30;99.90;;;;;;10497708;28;20569;-80
2024/02/15 17:08:25;;;;;;;0.70;0.70;;;14.20;99.90;;;;;;10503962;28;20283;-83
2024/02/15 17:13:29;;;;;;;0.80;0.80;;;14.10;99.90;;;;;;10491763;28;20232;-79
2024/02/15 17:18:31;;;;;;;0.80;0.80;;;14.00;99.90;;;;;;10497890;22;20610;-77
2024/02/15 17:23:34;;;;;;;0.30;0.30;;;13.90;99.90;;;;;;10447184;28;20201;-76
2024/02/15 17:28:38;;;;;;;0.70;0.70;;;13.80;99.90;;;;;;10450927;28;20217;-77
2024/02/15 17:33:41;;;;;;;0.70;0.70;;;13.70;99.90;;;;;;10431768;28;20221;-77
2024/02/15 17:38:43;;;;;;;0.70;0.70;;;13.70;99.90;;;;;;10404256;28;20223;-77
2024/02/15 17:43:47;;;;;;;0.80;0.80;;;13.60;99.90;;;;;;10390199;28;20198;-73
2024/02/15 17:48:49;;;;;;;0.80;0.80;;;13.50;99.90;;;;;;10412506;28;20691;-76
2024/02/15 17:53:53;;;;;;;0.60;0.60;;;13.50;99.90;;;;;;10414082;28;20295;-75
2024/02/15 17:58:57;;;;;;;0.60;0.60;;;13.50;99.90;;;;;;10413447;28;20218;-76
2024/02/15 18:03:59;;;;;;;0.70;0.70;;;13.50;99.90;;;;;;10396250;28;20247;-77
2024/02/15 18:09:01;;;;;;;0.60;0.60;;;13.50;99.90;;;;;;10413268;28;20214;-76
2024/02/15 18:14:06;;;;;;;0.70;0.70;;;13.50;99.90;;;;;;10413229;28;20214;-77
2024/02/15 18:19:09;;;;;;;0.80;0.80;;;13.40;99.90;;;;;;10407932;28;20226;-77
2024/02/15 18:24:11;;;;;;;0.60;0.60;;;13.40;99.90;;;;;;10435874;28;20204;-77
2024/02/15 18:29:18;;;;;;;0.40;0.40;;;13.40;99.90;;;;;;10439593;28;20265;-76
2024/02/15 18:34:20;;;;;;;0.60;0.60;;;13.30;99.90;;;;;;10424018;28;20465;-77
2024/02/15 18:39:25;;;;;;;0.80;0.80;;;13.20;99.90;;;;;;10415825;28;20683;-78
2024/02/15 18:44:28;;;;;;;0.67;0.67;;;13.20;99.90;;;;;;10412097;28;20186;-77
2024/02/15 18:49:31;;;;;;;0.70;0.70;;;13.20;99.90;;;;;;10411693;28;20222;-77
2024/02/15 18:54:33;;;;;;;0.70;0.70;;;13.10;99.90;;;;;;10411402;28;20214;-78
2024/02/15 18:59:37;;;;;;;0.70;0.70;;;13.10;99.90;;;;;;10411471;28;20295;-77
2024/02/15 19:04:39;;;;;;;0.80;0.80;;;13.00;99.90;;;;;;10411533;28;20198;-77
2024/02/15 19:09:42;;;;;;;0.57;0.57;;;12.90;99.90;;;;;;10411230;28;20772;-77
2024/02/15 19:14:45;;;;;;;0.50;0.50;;;12.90;99.90;;;;;;10410841;28;20643;-75
2024/02/15 19:19:48;;;;;;;0.23;0.23;;;12.90;99.90;;;;;;10405359;28;20229;-77
2024/02/15 19:24:51;;;;;;;0.40;0.40;;;12.90;99.90;;;;;;10393205;28;20236;-77
2024/02/15 19:29:54;;;;;;;0.50;0.50;;;12.90;99.90;;;;;;10409897;28;20725;-78
2024/02/15 19:34:57;;;;;;;0.60;0.60;;;12.90;99.90;;;;;;10410243;28;20629;-77
2024/02/15 19:39:59;;;;;;;0.60;0.60;;;12.80;99.90;;;;;;10411846;28;20209;-76
2024/02/15 19:45:03;;;;;;;0.53;0.53;;;12.90;99.90;;;;;;10417253;28;20186;-75
2024/02/15 19:50:07;;;;;;;0.63;0.63;;;12.80;99.90;;;;;;10409811;28;20581;-77
2024/02/15 19:55:10;;;;;;;0.40;0.40;;;12.90;99.90;;;;;;10408722;28;20222;-77
2024/02/15 20:00:15;;;;;;;0.50;0.50;;;12.80;99.90;;;;;;10390305;28;20230;-76
2024/02/15 20:05:18;;;;;;;0.43;0.43;;;12.90;99.90;;;;;;10392830;28;20198;-76
2024/02/15 20:10:22;;;;;;;0.60;0.60;;;12.80;99.90;;;;;;10405270;28;20218;-78
2024/02/15 20:15:25;;;;;;;0.53;0.53;;;12.70;99.90;;;;;;10404488;28;20222;-78
2024/02/15 20:20:29;;;;;;;0.60;0.60;;;12.60;99.90;;;;;;10404470;28;20723;-76
2024/02/15 20:25:31;;;;;;;0.70;0.70;;;12.60;99.90;;;;;;10404814;28;20604;-77
2024/02/15 20:30:37;;;;;;;0.60;0.60;;;12.50;99.90;;;;;;10404478;28;20267;-76
2024/02/15 20:35:39;;;;;;;0.60;0.60;;;12.50;99.90;;;;;;10399706;28;20225;-78
2024/02/15 20:40:42;;;;;;;0.60;0.60;;;12.40;99.90;;;;;;10389645;28;20222;-77
2024/02/15 20:45:46;;;;;;;0.50;0.50;;;12.40;99.90;;;;;;10414244;28;20723;-77
2024/02/15 20:50:48;;;;;;;0.60;0.60;;;12.50;99.90;;;;;;10405253;28;20222;-77
2024/02/15 20:55:51;;;;;;;0.60;0.60;;;12.50;99.90;;;;;;10408268;28;20216;-75
2024/02/15 21:00:56;;;;;;;0.60;0.60;;;12.60;99.90;;;;;;10416268;28;20209;-78
2024/02/15 21:05:58;;;;;;;0.60;0.60;;;12.60;99.90;;;;;;10415650;28;20712;-77
2024/02/15 21:11:01;;;;;;;0.67;0.67;;;12.60;99.90;;;;;;10415786;28;20225;-77
2024/02/15 21:16:07;;;;;;;0.63;0.63;;;12.60;99.90;;;;;;10415135;28;20214;-78
2024/02/15 21:21:10;;;;;;;0.60;0.60;;;12.60;99.90;;;;;;10415080;28;20236;-76
2024/02/15 21:26:12;;;;;;;0.70;0.70;;;12.60;99.90;;;;;;10412191;28;20197;-77
2024/02/15 21:31:16;;;;;;;0.50;0.50;;;12.60;99.90;;;;;;10414707;28;20764;-77
2024/02/15 21:36:19;;;;;;;0.40;0.40;;;12.50;99.90;;;;;;10410766;28;20249;-78
2024/02/15 21:41:22;;;;;;;0.60;0.60;;;12.50;99.90;;;;;;10413713;28;20679;-78
2024/02/15 21:46:27;;;;;;;0.50;0.50;;;12.50;99.90;;;;;;10414581;28;20198;-77
2024/02/15 21:51:29;;;;;;;0.60;0.60;;;12.40;99.90;;;;;;10414393;28;20210;-77
2024/02/15 21:56:31;;;;;;;0.60;0.60;;;12.30;99.90;;;;;;10408745;28;21069;-78
2024/02/15 22:01:38;;;;;;;0.60;0.60;;;12.20;99.90;;;;;;10414059;28;20210;-78
2024/02/15 22:06:45;;;;;;;0.60;0.60;;;12.10;99.90;;;;;;10411895;28;20217;-77
2024/02/15 22:11:48;;;;;;;0.50;0.50;;;12.00;99.90;;;;;;10413610;28;20629;-78
2024/02/15 22:16:51;;;;;;;0.50;0.50;;;11.90;99.90;;;;;;10411787;28;20267;-76
2024/02/15 22:21:54;;;;;;;0.67;0.67;;;11.80;99.90;;;;;;10413314;28;20271;-78
2024/02/15 22:26:58;;;;;;;0.60;0.60;;;11.80;99.90;;;;;;10412413;28;20721;-77
2024/02/15 22:32:02;;;;;;;0.60;0.60;;;11.80;99.90;;;;;;10412607;28;20260;-77
2024/02/15 22:37:04;;;;;;;0.50;0.50;;;11.80;99.90;;;;;;10412240;28;20213;-76
2024/02/15 22:42:07;;;;;;;0.50;0.50;;;11.70;99.90;;;;;;10412544;28;20206;-77
2024/02/15 22:47:10;;;;;;;0.70;0.70;;;11.70;99.90;;;;;;10411975;28;20175;-77
2024/02/15 22:52:14;;;;;;;0.90;0.90;;;11.60;99.90;;;;;;10412029;28;20268;-77
2024/02/15 22:57:17;;;;;;;0.60;0.60;;;11.50;99.90;;;;;;10411144;28;20222;-77
2024/02/15 23:02:21;;;;;;;0.60;0.60;;;11.40;99.90;;;;;;10406727;28;20214;-77
2024/02/15 23:07:24;;;;;;;0.50;0.50;;;11.30;99.90;;;;;;10410117;28;20260;-77
2024/02/15 23:12:27;;;;;;;0.40;0.40;;;11.30;99.90;;;;;;10411145;28;20217;-78
2024/02/15 23:22:36;;;;;;;0.50;0.50;;;11.30;99.90;;;;;;10435365;28;20204;-81
2024/02/15 23:27:38;;;;;;;0.50;0.50;;;11.30;99.90;;;;;;10429111;28;20197;-82
2024/02/15 23:32:40;;;;;;;0.60;0.60;;;11.20;99.90;;;;;;10429266;28;20201;-81
2024/02/15 23:43:04;;;;;;;0.60;0.60;;;11.20;99.90;;;;;;10408795;28;20576;-82
2024/02/15 23:48:07;;;;;;;0.70;0.70;;;11.20;99.90;;;;;;10425595;28;20232;-83
2024/02/15 23:53:11;;;;;;;0.70;0.70;;;11.20;99.90;;;;;;10425842;28;20251;-82
2024/02/15 23:58:13;;;;;;;0.50;0.50;;;11.20;99.90;;;;;;10427650;28;20218;-82
